Time;durP1;ratioP1;P1;durP2;ratioP2;P2;SDS_P1;SDS_P2;PMS_P1;PMS_P2;Temp;Humidity;BMP_temperature;BMP_pressure;BME280_temperature;BME280_humidity;BME280_pressure;Samples;Min_cycle;Max_cycle;Signal;HPM_P1;HPM_P2
2023/04/17 00:01:13;;;;;;;;;21.75;21.00;;;;;10.56;76.28;100604.38;5095618;28;8837;-61
2023/04/17 00:03:41;;;;;;;;;21.50;18.25;;;;;10.57;76.78;100609.59;5095888;28;8875;-59
2023/04/17 00:06:12;;;;;;;;;24.25;20.50;;;;;10.56;76.73;100610.53;5096573;28;8864;-60
2023/04/17 00:08:42;;;;;;;;;26.75;23.75;;;;;10.56;76.42;100615.88;5096127;28;8809;-59
2023/04/17 00:11:10;;;;;;;;;26.00;25.25;;;;;10.57;76.85;100619.41;5096384;28;8815;-61
2023/04/17 00:13:37;;;;;;;;;23.50;21.75;;;;;10.55;76.44;100619.50;5096271;28;8820;-59
2023/04/17 00:16:05;;;;;;;;;18.00;16.25;;;;;10.54;76.43;100616.97;5096197;28;8888;-59
2023/04/17 00:18:33;;;;;;;;;21.00;16.00;;;;;10.54;77.05;100612.47;5096117;28;8812;-61
2023/04/17 00:21:00;;;;;;;;;21.00;19.25;;;;;10.52;76.86;100617.06;5095722;28;9522;-61
2023/04/17 00:23:28;;;;;;;;;26.25;22.00;;;;;10.51;76.93;100604.69;5095954;28;8814;-60
2023/04/17 00:25:56;;;;;;;;;28.00;26.00;;;;;10.51;76.80;100612.69;5096235;28;8830;-60
2023/04/17 00:28:23;;;;;;;;;27.75;26.00;;;;;10.49;76.78;100611.94;5096047;28;8846;-60
2023/04/17 00:30:52;;;;;;;;;25.00;23.25;;;;;10.47;77.26;100608.50;5096874;28;8868;-60
2023/04/17 00:33:20;;;;;;;;;27.25;25.25;;;;;10.45;76.69;100607.78;5097226;28;8818;-61
2023/04/17 00:35:48;;;;;;;;;13.00;12.25;;;;;10.42;77.14;100607.13;5095644;28;8807;-61
2023/04/17 00:38:16;;;;;;;;;33.75;29.00;;;;;10.40;77.12;100612.56;5095895;28;8817;-61
2023/04/17 00:40:44;;;;;;;;;30.00;25.50;;;;;10.38;76.84;100602.97;5095511;28;8818;-60
2023/04/17 00:43:12;;;;;;;;;23.50;20.50;;;;;10.35;77.18;100604.06;5096177;28;8806;-61
2023/04/17 00:45:39;;;;;;;;;22.50;15.75;;;;;10.33;77.52;100600.63;5095798;28;8803;-58
2023/04/17 00:48:07;;;;;;;;;28.00;25.75;;;;;10.33;77.58;100605.09;5096318;28;9628;-59
2023/04/17 00:50:35;;;;;;;;;31.20;29.40;;;;;10.32;77.78;100603.41;5096256;28;8825;-61
2023/04/17 00:53:03;;;;;;;;;27.75;24.50;;;;;10.30;77.26;100597.31;5099949;28;8828;-59
2023/04/17 00:55:31;;;;;;;;;20.00;19.50;;;;;10.30;77.46;100607.94;5099746;28;8814;-58
2023/04/17 00:57:59;;;;;;;;;28.25;25.25;;;;;10.28;77.31;100605.41;5100052;28;8818;-61
2023/04/17 01:00:26;;;;;;;;;25.25;24.50;;;;;10.28;77.15;100600.09;5099689;28;8864;-61
2023/04/17 01:02:54;;;;;;;;;31.50;29.00;;;;;10.29;77.82;100604.47;5099525;28;8826;-61
2023/04/17 01:05:22;;;;;;;;;26.00;22.75;;;;;10.28;77.56;100605.41;5099661;28;8806;-58
2023/04/17 01:07:50;;;;;;;;;28.25;26.00;;;;;10.28;77.64;100601.88;5099785;28;9490;-59
2023/04/17 01:10:17;;;;;;;;;24.25;21.25;;;;;10.26;77.35;100615.28;5099816;28;8810;-59
2023/04/17 01:12:48;;;;;;;;;28.00;23.75;;;;;10.24;77.78;100603.91;5099516;28;8899;-59
2023/04/17 01:15:15;;;;;;;;;28.25;25.75;;;;;10.23;77.79;100612.00;5099463;28;9498;-59
2023/04/17 01:17:43;;;;;;;;;23.60;19.80;;;;;10.20;77.53;100605.09;5099508;28;8842;-57
2023/04/17 01:20:12;;;;;;;;;25.50;25.50;;;;;10.18;78.03;100601.66;5099407;28;8814;-60
2023/04/17 01:22:39;;;;;;;;;23.75;19.25;;;;;10.18;77.92;100608.81;5099797;28;8822;-61
2023/04/17 01:25:07;;;;;;;;;32.50;30.25;;;;;10.18;77.50;100614.13;5099487;28;8822;-59
2023/04/17 01:27:35;;;;;;;;;23.50;20.50;;;;;10.15;78.15;100609.00;5099141;28;8794;-61
2023/04/17 01:30:03;;;;;;;;;18.00;17.00;;;;;10.14;77.72;100607.28;5084855;28;8846;-59
2023/04/17 01:32:31;;;;;;;;;18.25;16.25;;;;;10.13;78.01;100617.09;5099424;28;9543;-61
2023/04/17 01:35:00;;;;;;;;;24.60;23.20;;;;;10.11;78.15;100618.16;5098973;28;8940;-61
2023/04/17 01:37:27;;;;;;;;;21.00;19.00;;;;;10.09;78.20;100620.91;5098716;28;8844;-59
2023/04/17 01:39:55;;;;;;;;;27.50;24.25;;;;;10.08;77.97;100624.53;5098846;28;8818;-60
2023/04/17 01:42:23;;;;;;;;;27.25;23.00;;;;;10.09;77.82;100620.91;5098661;28;8850;-58
2023/04/17 01:44:51;;;;;;;;;20.00;19.00;;;;;10.10;78.11;100627.09;5099212;28;8802;-58
2023/04/17 01:47:18;;;;;;;;;26.20;24.60;;;;;10.09;77.91;100615.59;5099320;28;8833;-61
2023/04/17 01:49:46;;;;;;;;;25.50;22.50;;;;;10.10;78.02;100622.59;5098698;28;8802;-59
2023/04/17 01:52:14;;;;;;;;;28.60;26.00;;;;;10.09;77.67;100620.91;5098821;28;8911;-61
2023/04/17 01:54:41;;;;;;;;;27.50;24.50;;;;;10.08;78.10;100621.03;5098251;28;8841;-61
2023/04/17 01:57:10;;;;;;;;;28.00;25.00;;;;;10.07;78.25;100617.50;5083957;28;8802;-60
2023/04/17 01:59:37;;;;;;;;;21.75;19.00;;;;;10.09;78.12;100625.41;5097942;28;8833;-61
2023/04/17 02:02:05;;;;;;;;;28.00;25.25;;;;;10.09;78.27;100626.22;5097673;28;8803;-61
2023/04/17 02:04:33;;;;;;;;;28.50;26.75;;;;;10.11;78.05;100628.78;5098573;28;9498;-60
2023/04/17 02:07:00;;;;;;;;;27.50;25.25;;;;;10.11;77.94;100621.66;5099084;28;8842;-59
2023/04/17 02:09:29;;;;;;;;;23.25;21.25;;;;;10.11;77.68;100616.31;5098803;28;8796;-60
2023/04/17 02:11:56;;;;;;;;;29.00;27.00;;;;;10.12;78.05;100626.03;5098926;28;9509;-60
2023/04/17 02:14:36;;;;;;;;;21.50;21.50;;;;;10.12;78.16;100618.06;5098639;28;8800;-61
2023/04/17 02:17:04;;;;;;;;;24.00;22.00;;;;;10.12;77.79;100631.38;5098785;28;8824;-60
2023/04/17 02:19:32;;;;;;;;;24.00;23.50;;;;;10.10;77.93;100619.94;5098674;28;8835;-59
2023/04/17 02:22:00;;;;;;;;;26.20;23.40;;;;;10.11;77.52;100626.97;5098080;28;8821;-60
2023/04/17 02:24:28;;;;;;;;;27.20;21.40;;;;;10.10;77.56;100624.44;5098355;28;8915;-58
2023/04/17 02:26:55;;;;;;;;;25.50;22.00;;;;;10.08;78.24;100627.19;5098359;28;8814;-60
2023/04/17 02:29:23;;;;;;;;;20.00;17.80;;;;;10.07;77.91;100625.47;5098345;28;8842;-60
2023/04/17 02:31:51;;;;;;;;;24.00;24.00;;;;;10.06;78.31;100626.44;5098627;28;8912;-61
2023/04/17 02:34:18;;;;;;;;;19.60;16.60;;;;;10.06;78.23;100629.09;5098295;28;8806;-61
2023/04/17 02:36:46;;;;;;;;;23.00;21.50;;;;;10.07;78.01;100624.63;5098266;28;8875;-61
2023/04/17 02:39:14;;;;;;;;;24.25;21.25;;;;;10.06;77.63;100625.56;5098343;28;8877;-58
2023/04/17 02:41:42;;;;;;;;;27.20;24.60;;;;;10.06;77.91;100625.56;5097844;28;8810;-59
2023/04/17 02:44:09;;;;;;;;;18.50;17.00;;;;;10.04;77.47;100622.16;5098172;28;9641;-60
2023/04/17 02:46:37;;;;;;;;;30.50;26.75;;;;;10.02;78.29;100622.22;5097505;28;8863;-59
2023/04/17 02:49:05;;;;;;;;;22.75;22.75;;;;;10.00;78.12;100618.81;5097520;28;8810;-61
2023/04/17 02:51:33;;;;;;;;;30.00;27.00;;;;;9.99;78.31;100622.44;5097847;28;8834;-61
2023/04/17 02:54:01;;;;;;;;;28.40;26.80;;;;;9.97;78.40;100621.72;5097935;28;9471;-61
2023/04/17 02:56:29;;;;;;;;;26.75;22.25;;;;;9.97;78.05;100629.69;5097401;28;8810;-61
2023/04/17 02:58:56;;;;;;;;;21.60;20.60;;;;;9.97;77.78;100626.16;5097300;28;8822;-60
2023/04/17 03:01:25;;;;;;;;;23.20;21.60;;;;;9.96;78.06;100624.47;5097647;28;8826;-60
2023/04/17 03:03:52;;;;;;;;;26.60;24.60;;;;;9.93;78.33;100622.84;5097596;28;8813;-61
2023/04/17 03:06:21;;;;;;;;;31.40;25.80;;;;;9.92;78.09;100633.59;5097552;28;8830;-61
2023/04/17 03:08:49;;;;;;;;;21.25;18.00;;;;;9.91;78.24;100626.56;5096598;28;8838;-60
2023/04/17 03:11:16;;;;;;;;;26.40;23.80;;;;;9.88;78.23;100622.28;5097465;28;8810;-61
2023/04/17 03:13:44;;;;;;;;;26.40;24.60;;;;;9.87;78.58;100625.06;5096545;28;8840;-60
2023/04/17 03:16:12;;;;;;;;;30.60;28.40;;;;;9.85;78.35;100630.47;5097181;28;8874;-59
2023/04/17 03:18:39;;;;;;;;;24.80;21.40;;;;;9.85;78.32;100634.94;5096566;28;8845;-60
2023/04/17 03:21:08;;;;;;;;;28.80;25.80;;;;;9.83;78.55;100639.50;5096957;28;8932;-61
2023/04/17 03:23:35;;;;;;;;;24.80;22.80;;;;;9.82;78.82;100637.81;5076864;28;8816;-61
2023/04/17 03:26:03;;;;;;;;;25.40;22.80;;;;;9.81;78.50;100647.56;5077020;28;8808;-60
2023/04/17 03:28:31;;;;;;;;;25.40;23.60;;;;;9.81;78.05;100639.59;5096536;28;8794;-58
2023/04/17 03:30:59;;;;;;;;;29.40;28.00;;;;;9.80;78.74;100647.69;5096971;28;8838;-61
2023/04/17 03:33:27;;;;;;;;;26.00;22.00;;;;;9.78;78.20;100644.31;5096228;28;8809;-59
2023/04/17 03:35:55;;;;;;;;;24.00;21.75;;;;;9.77;78.48;100640.78;5096543;28;8830;-58
2023/04/17 03:38:22;;;;;;;;;19.50;18.25;;;;;9.76;78.57;100646.19;5096802;28;9502;-58
2023/04/17 03:40:50;;;;;;;;;21.60;18.40;;;;;9.74;78.25;100640.97;5096145;28;8818;-60
2023/04/17 03:43:19;;;;;;;;;22.20;18.80;;;;;9.74;78.27;100646.31;5096902;28;8826;-59
2023/04/17 03:45:48;;;;;;;;;15.50;13.75;;;;;9.72;78.76;100637.53;5096499;28;8834;-58
2023/04/17 03:48:15;;;;;;;;;17.50;15.50;;;;;9.71;78.19;100643.81;5096419;28;8875;-61
2023/04/17 03:50:43;;;;;;;;;26.00;21.75;;;;;9.71;78.42;100641.16;5095714;28;8895;-58
2023/04/17 03:53:10;;;;;;;;;18.50;17.50;;;;;9.70;78.19;100650.09;5095900;28;8803;-60
2023/04/17 03:55:38;;;;;;;;;20.00;18.50;;;;;9.70;78.35;100642.13;5096967;28;9518;-60
2023/04/17 03:58:06;;;;;;;;;14.50;14.00;;;;;9.68;78.14;100644.03;5096186;28;8838;-60
2023/04/17 04:00:36;;;;;;;;;27.25;24.00;;;;;9.67;78.96;100649.44;5095910;28;9608;-60
2023/04/17 04:03:03;;;;;;;;;12.50;10.50;;;;;9.66;78.72;100653.06;5096080;28;8864;-61
2023/04/17 04:05:32;;;;;;;;;25.50;23.50;;;;;9.65;78.93;100651.34;5096058;28;8802;-58
2023/04/17 04:08:00;;;;;;;;;19.75;14.75;;;;;9.63;78.32;100654.09;5096611;28;8816;-58
2023/04/17 04:10:27;;;;;;;;;30.25;25.00;;;;;9.63;78.75;100653.28;5096657;28;8838;-58
2023/04/17 04:12:55;;;;;;;;;24.75;22.00;;;;;9.60;78.94;100654.31;5096290;28;8835;-60
2023/04/17 04:15:23;;;;;;;;;25.50;24.25;;;;;9.58;79.08;100658.84;5096476;28;8807;-61
2023/04/17 04:17:50;;;;;;;;;28.40;26.80;;;;;9.56;79.07;100652.78;5096332;28;8908;-61
2023/04/17 04:20:18;;;;;;;;;27.40;20.60;;;;;9.53;78.49;100658.31;5096316;28;8808;-59
2023/04/17 04:22:47;;;;;;;;;24.50;21.75;;;;;9.52;78.86;100661.06;5096186;28;8823;-59
2023/04/17 04:25:16;;;;;;;;;27.00;24.00;;;;;9.50;78.64;100655.00;5096154;28;8842;-59
2023/04/17 04:27:48;;;;;;;;;27.00;23.60;;;;;9.48;78.92;100659.56;5095769;28;8819;-59
2023/04/17 04:30:16;;;;;;;;;25.50;23.50;;;;;9.48;79.05;100660.41;5095958;28;9595;-59
2023/04/17 04:32:44;;;;;;;;;24.50;21.25;;;;;9.46;79.17;100657.00;5095890;28;9579;-58
2023/04/17 04:35:12;;;;;;;;;18.75;18.75;;;;;9.46;79.20;100666.75;5095708;28;8811;-59
2023/04/17 04:37:41;;;;;;;;;25.00;24.00;;;;;9.45;78.74;100665.94;5095718;28;8808;-61
2023/04/17 04:40:09;;;;;;;;;17.60;15.80;;;;;9.45;78.81;100667.72;5095576;28;8831;-59
2023/04/17 04:42:38;;;;;;;;;25.40;19.80;;;;;9.43;78.97;100666.97;5095974;28;8896;-61
2023/04/17 04:45:06;;;;;;;;;28.80;25.80;;;;;9.43;79.08;100673.13;5095987;28;8866;-59
2023/04/17 04:47:34;;;;;;;;;24.40;21.60;;;;;9.43;79.25;100666.97;5095708;28;8825;-61
2023/04/17 04:50:02;;;;;;;;;28.60;27.20;;;;;9.44;78.81;100672.19;5095293;28;8897;-59
2023/04/17 04:52:30;;;;;;;;;27.00;24.60;;;;;9.45;78.87;100675.69;5095622;28;9622;-58
2023/04/17 04:54:57;;;;;;;;;25.80;24.40;;;;;9.47;78.70;100673.78;5095926;28;8838;-60
2023/04/17 04:57:25;;;;;;;;;21.00;19.00;;;;;9.47;79.06;100682.63;5095743;28;8812;-59
2023/04/17 04:59:53;;;;;;;;;26.80;25.40;;;;;9.49;78.70;100678.06;5095503;28;8860;-62
2023/04/17 05:02:21;;;;;;;;;21.20;19.40;;;;;9.50;78.65;100678.91;5095121;28;8815;-59
2023/04/17 05:04:49;;;;;;;;;17.25;16.50;;;;;9.51;78.73;100680.63;5095482;28;8912;-61
2023/04/17 05:07:17;;;;;;;;;21.60;20.60;;;;;9.51;79.01;100681.50;5094752;28;8898;-60
2023/04/17 05:09:44;;;;;;;;;28.20;24.00;;;;;9.53;79.00;100684.03;5094782;28;8815;-60
2023/04/17 05:12:13;;;;;;;;;23.00;21.75;;;;;9.54;78.32;100688.41;5094785;28;8834;-58
2023/04/17 05:14:40;;;;;;;;;22.50;21.75;;;;;9.56;78.85;100690.00;5094243;28;8884;-60
2023/04/17 05:17:08;;;;;;;;;32.40;30.20;;;;;9.56;78.55;100702.47;5093375;28;8806;-59
2023/04/17 05:19:36;;;;;;;;;27.25;25.00;;;;;9.57;78.58;100694.38;5094549;28;9468;-58
2023/04/17 05:22:03;;;;;;;;;25.20;24.20;;;;;9.58;78.50;100697.91;5094583;28;8844;-58
2023/04/17 05:24:31;;;;;;;;;20.60;19.80;;;;;9.59;78.56;100700.47;5094294;28;8834;-59
2023/04/17 05:27:00;;;;;;;;;33.00;27.00;;;;;9.60;78.91;100696.84;5093456;28;8845;-58
2023/04/17 05:29:29;;;;;;;;;25.00;24.00;;;;;9.60;78.51;100704.84;5093794;28;8887;-58
2023/04/17 05:31:56;;;;;;;;;24.00;22.25;;;;;9.60;78.42;100702.16;5093807;28;8893;-59
2023/04/17 05:34:24;;;;;;;;;21.00;18.50;;;;;9.62;78.53;100702.06;5093534;28;8822;-59
2023/04/17 05:36:53;;;;;;;;;24.00;22.00;;;;;9.62;78.28;100704.72;5094058;28;9893;-59
2023/04/17 05:39:20;;;;;;;;;25.00;22.40;;;;;9.63;78.60;100712.59;5097110;28;8922;-58
2023/04/17 05:41:48;;;;;;;;;25.80;24.00;;;;;9.65;78.21;100712.50;5096586;28;8860;-59
2023/04/17 05:44:16;;;;;;;;;29.20;25.40;;;;;9.67;78.94;100713.25;5096785;28;8833;-58
2023/04/17 05:46:44;;;;;;;;;29.75;27.00;;;;;9.68;78.31;100715.84;5095480;28;8918;-59
2023/04/17 05:49:12;;;;;;;;;22.00;18.75;;;;;9.71;78.29;100714.78;5095415;28;8922;-59
2023/04/17 05:51:40;;;;;;;;;21.75;21.00;;;;;9.72;78.08;100717.31;5095445;28;8903;-58
2023/04/17 05:54:07;;;;;;;;;24.00;22.80;;;;;9.73;78.11;100711.06;5095798;28;8845;-58
2023/04/17 05:56:35;;;;;;;;;28.40;25.00;;;;;9.75;78.30;100709.19;5096207;28;8845;-59
2023/04/17 05:59:03;;;;;;;;;28.20;24.60;;;;;9.77;77.93;100709.91;5094765;28;8829;-58
2023/04/17 06:01:31;;;;;;;;;26.00;24.00;;;;;9.79;78.06;100710.66;5095195;28;8842;-58
2023/04/17 06:03:59;;;;;;;;;26.80;23.20;;;;;9.82;78.23;100715.81;5095369;28;8968;-59
2023/04/17 06:06:28;;;;;;;;;26.60;25.80;;;;;9.83;78.34;100719.31;5096051;28;8834;-59
2023/04/17 06:08:56;;;;;;;;;23.60;18.60;;;;;9.83;78.66;100720.19;5096277;28;8899;-58
2023/04/17 06:11:24;;;;;;;;;26.25;21.50;;;;;9.85;78.52;100722.72;5095717;28;8822;-58
2023/04/17 06:13:52;;;;;;;;;25.50;23.50;;;;;9.86;78.22;100725.28;5095545;28;8830;-60
2023/04/17 06:16:20;;;;;;;;;29.00;26.50;;;;;9.88;78.29;100723.38;5095624;28;8834;-58
2023/04/17 06:18:48;;;;;;;;;28.25;22.75;;;;;9.91;78.25;100733.84;5095372;28;9504;-58
2023/04/17 06:21:16;;;;;;;;;36.40;34.20;;;;;9.93;78.33;100726.59;5094381;28;8837;-58
2023/04/17 06:23:44;;;;;;;;;28.80;24.60;;;;;9.97;78.17;100728.13;5095899;28;9535;-63
2023/04/17 06:26:12;;;;;;;;;27.00;26.50;;;;;10.01;77.63;100724.28;5096143;28;8818;-59
2023/04/17 06:28:40;;;;;;;;;23.50;22.00;;;;;10.04;77.84;100731.25;5095973;28;9517;-59
2023/04/17 06:31:07;;;;;;;;;28.80;26.20;;;;;10.06;77.71;100729.34;5095663;28;9565;-59
2023/04/17 06:33:35;;;;;;;;;30.80;29.60;;;;;10.09;77.66;100729.16;5095326;28;8845;-58
2023/04/17 06:36:03;;;;;;;;;30.80;28.20;;;;;10.11;78.19;100728.09;5095870;28;8860;-59
2023/04/17 06:38:31;;;;;;;;;32.00;27.80;;;;;10.12;78.06;100736.94;5095944;28;8832;-58
2023/04/17 06:40:59;;;;;;;;;30.00;26.20;;;;;10.13;77.97;100738.66;5095506;28;8872;-59
2023/04/17 06:43:27;;;;;;;;;31.80;29.00;;;;;10.13;78.16;100742.19;5096103;28;8837;-59
2023/04/17 06:45:54;;;;;;;;;34.00;31.00;;;;;10.12;78.24;100743.13;5095760;28;8822;-59
2023/04/17 06:48:22;;;;;;;;;32.80;28.40;;;;;10.12;78.10;100748.47;5094377;28;8826;-59
2023/04/17 06:50:50;;;;;;;;;32.20;28.00;;;;;10.12;78.11;100752.91;5094603;28;8837;-59
2023/04/17 06:53:18;;;;;;;;;30.50;27.00;;;;;10.11;78.50;100744.06;5094340;28;8854;-59
2023/04/17 06:55:46;;;;;;;;;33.75;28.25;;;;;10.13;78.32;100755.47;5094767;28;8822;-59
2023/04/17 06:58:14;;;;;;;;;30.60;28.40;;;;;10.14;77.93;100754.53;5095286;28;8833;-58
2023/04/17 07:00:42;;;;;;;;;25.40;23.60;;;;;10.15;77.98;100758.03;5095017;28;8854;-58
2023/04/17 07:03:11;;;;;;;;;24.60;21.00;;;;;10.15;78.20;100758.88;5094835;28;8915;-57
2023/04/17 07:05:39;;;;;;;;;24.75;22.00;;;;;10.16;77.82;100765.91;5095229;28;8877;-58
2023/04/17 07:08:07;;;;;;;;;36.25;29.25;;;;;10.18;78.31;100764.00;5095497;28;8833;-58
2023/04/17 07:10:36;;;;;;;;;31.25;28.25;;;;;10.24;78.35;100768.09;5095933;28;9010;-59
2023/04/17 07:13:04;;;;;;;;;30.25;26.00;;;;;10.30;77.86;100767.66;5095054;28;8860;-58
2023/04/17 07:15:32;;;;;;;;;28.40;25.80;;;;;10.35;78.16;100773.56;5094973;28;8840;-59
2023/04/17 07:18:00;;;;;;;;;24.75;18.00;;;;;10.39;77.50;100772.41;5094999;28;8922;-58
2023/04/17 07:20:28;;;;;;;;;25.25;23.50;;;;;10.45;77.38;100779.97;5095411;28;8969;-58
2023/04/17 07:22:56;;;;;;;;;16.75;12.75;;;;;10.49;77.28;100787.69;5094945;28;8826;-58
2023/04/17 07:25:25;;;;;;;;;34.50;27.50;;;;;10.53;77.52;100788.31;5095274;28;8842;-58
2023/04/17 07:27:53;;;;;;;;;32.80;29.20;;;;;10.58;77.10;100784.41;5095588;28;8860;-59
2023/04/17 07:30:21;;;;;;;;;31.00;29.25;;;;;10.63;77.52;100789.44;5095425;28;8877;-59
2023/04/17 07:32:49;;;;;;;;;27.50;26.00;;;;;10.69;77.06;100789.88;5095344;28;8842;-59
2023/04/17 07:35:17;;;;;;;;;29.75;26.00;;;;;10.75;77.43;100791.25;5095398;28;8834;-59
2023/04/17 07:37:45;;;;;;;;;27.50;26.25;;;;;10.81;76.89;100791.72;5093793;28;8916;-57
2023/04/17 07:40:13;;;;;;;;;22.75;21.75;;;;;10.90;77.11;100791.09;5093646;28;8838;-61
2023/04/17 07:42:41;;;;;;;;;26.25;25.50;;;;;11.04;76.67;100793.69;5095026;28;8846;-58
2023/04/17 07:45:09;;;;;;;;;31.75;28.25;;;;;11.13;76.28;100793.06;5093598;28;9535;-58
2023/04/17 07:47:37;;;;;;;;;17.00;16.25;;;;;11.21;76.55;100793.38;5094130;28;8849;-60
2023/04/17 07:50:05;;;;;;;;;34.50;30.00;;;;;11.28;76.24;100794.69;5094079;28;8834;-59
2023/04/17 07:52:33;;;;;;;;;30.25;26.00;;;;;11.33;75.80;100800.56;5094224;28;8839;-59
2023/04/17 07:55:01;;;;;;;;;30.50;29.50;;;;;11.40;76.01;100793.84;5094858;28;8841;-58
2023/04/17 07:57:29;;;;;;;;;29.25;26.25;;;;;11.52;75.99;100784.13;5094819;28;8866;-58
2023/04/17 07:59:57;;;;;;;;;26.25;25.00;;;;;11.72;75.29;100787.13;5094929;28;8854;-61
2023/04/17 08:02:25;;;;;;;;;27.00;25.75;;;;;11.88;75.39;100785.06;5095107;28;8814;-60
2023/04/17 08:04:54;;;;;;;;;40.00;37.50;;;;;12.00;74.61;100794.88;5095358;28;8838;-61
2023/04/17 08:07:22;;;;;;;;;30.50;27.00;;;;;12.05;74.60;100796.25;5094872;28;8902;-60
2023/04/17 08:09:50;;;;;;;;;33.50;29.00;;;;;12.05;74.76;100795.38;5092842;28;8834;-58
2023/04/17 08:12:18;;;;;;;;;31.50;30.50;;;;;12.05;74.53;100800.72;5087633;28;8901;-61
2023/04/17 08:14:46;;;;;;;;;27.50;25.50;;;;;12.05;74.59;100801.59;5080995;28;8810;-60
2023/04/17 08:17:16;;;;;;;;;23.25;23.00;;;;;12.04;74.39;100807.03;5094448;28;8826;-61
2023/04/17 08:19:44;;;;;;;;;34.00;30.50;;;;;12.03;74.48;100808.00;5080590;28;8823;-61
2023/04/17 08:22:12;;;;;;;;;31.25;28.50;;;;;12.04;74.49;100810.56;5073972;28;8876;-59
2023/04/17 08:24:41;;;;;;;;;31.00;28.00;;;;;12.05;74.70;100812.28;5073980;28;8851;-60
2023/04/17 08:27:09;;;;;;;;;28.00;26.00;;;;;12.07;74.92;100809.50;5078254;28;8850;-61
2023/04/17 08:29:38;;;;;;;;;30.25;30.00;;;;;12.13;74.59;100809.03;5094962;28;8848;-60
2023/04/17 08:32:06;;;;;;;;;29.00;27.00;;;;;12.26;74.26;100812.53;5095026;28;8854;-58
2023/04/17 08:34:41;;;;;;;;;30.00;27.50;;;;;12.41;74.31;100803.41;5094402;28;8838;-60
2023/04/17 08:37:09;;;;;;;;;28.50;25.00;;;;;12.52;73.70;100803.44;5094996;28;8877;-61
2023/04/17 08:39:37;;;;;;;;;30.75;29.00;;;;;12.64;73.66;100803.41;5094665;28;8829;-60
2023/04/17 08:42:05;;;;;;;;;32.00;28.00;;;;;12.73;73.57;100801.88;5094691;28;8956;-61
2023/04/17 08:44:33;;;;;;;;;30.25;29.00;;;;;12.83;73.20;100805.56;5087981;28;9536;-61
2023/04/17 08:47:02;;;;;;;;;31.50;30.00;;;;;12.87;73.57;100807.91;5073601;28;8851;-61
2023/04/17 08:49:30;;;;;;;;;30.50;30.00;;;;;12.90;72.77;100818.34;5088416;28;8881;-61
2023/04/17 08:51:58;;;;;;;;;32.50;29.25;;;;;12.94;72.83;100811.84;5093040;28;8818;-59
2023/04/17 08:54:26;;;;;;;;;27.75;25.00;;;;;13.02;72.77;100814.78;5092146;28;8841;-58
2023/04/17 08:56:55;;;;;;;;;27.50;27.00;;;;;13.07;72.75;100809.09;5091956;28;8826;-59
2023/04/17 08:59:23;;;;;;;;;27.00;24.75;;;;;13.13;72.39;100811.31;5091946;28;8842;-61
2023/04/17 09:01:52;;;;;;;;;29.75;26.00;;;;;13.18;73.01;100814.47;5091358;28;8846;-60
2023/04/17 09:04:20;;;;;;;;;31.00;29.25;;;;;13.21;72.59;100806.22;5091450;28;8918;-60
2023/04/17 09:06:48;;;;;;;;;26.50;26.00;;;;;13.20;72.11;100815.22;5093206;28;8838;-59
2023/04/17 09:09:16;;;;;;;;;30.25;27.00;;;;;13.18;72.66;100817.13;5093326;28;8837;-58
2023/04/17 09:11:44;;;;;;;;;30.75;27.00;;;;;13.17;72.19;100812.75;5093560;28;8838;-58
2023/04/17 09:14:13;;;;;;;;;27.00;24.75;;;;;13.29;72.08;100818.03;5095428;28;8834;-57
2023/04/17 09:16:42;;;;;;;;;25.75;24.00;;;;;13.40;72.04;100811.84;5095742;28;8822;-61
2023/04/17 09:19:09;;;;;;;;;25.25;24.00;;;;;13.55;71.36;100819.56;5096273;28;8842;-60
2023/04/17 09:21:38;;;;;;;;;20.25;18.50;;;;;13.70;70.63;100817.50;5096153;28;8866;-59
2023/04/17 09:24:06;;;;;;;;;31.25;23.75;;;;;13.74;70.60;100821.66;5096380;28;8830;-61
2023/04/17 09:26:34;;;;;;;;;24.50;23.75;;;;;13.78;70.77;100817.75;5096297;28;8918;-59
2023/04/17 09:29:02;;;;;;;;;23.50;22.50;;;;;13.81;70.39;100823.69;5097023;28;8856;-61
2023/04/17 09:31:30;;;;;;;;;22.75;20.25;;;;;13.86;70.24;100818.84;5097514;28;8853;-61
2023/04/17 09:33:58;;;;;;;;;22.25;19.75;;;;;13.87;70.37;100817.88;5097755;28;8841;-59
2023/04/17 09:36:29;;;;;;;;;21.50;18.75;;;;;13.82;70.94;100828.09;5097613;28;8915;-59
2023/04/17 09:38:58;;;;;;;;;22.50;19.00;;;;;13.85;70.72;100827.84;5097476;28;8838;-61
2023/04/17 09:41:26;;;;;;;;;21.00;19.25;;;;;13.88;70.04;100827.59;5097046;28;9563;-59
2023/04/17 09:43:54;;;;;;;;;19.25;16.00;;;;;13.84;70.43;100827.97;5097666;28;8838;-59
2023/04/17 09:46:22;;;;;;;;;30.00;24.50;;;;;13.81;70.59;100823.69;5097642;28;8956;-59
2023/04/17 09:48:50;;;;;;;;;23.50;21.25;;;;;13.77;70.76;100826.75;5097485;28;8919;-59
2023/04/17 09:51:18;;;;;;;;;24.50;20.75;;;;;13.68;70.52;100830.16;5097289;28;8834;-59
2023/04/17 09:53:48;;;;;;;;;21.25;18.25;;;;;13.65;70.63;100830.38;5097004;28;8826;-59
2023/04/17 09:56:15;;;;;;;;;15.75;14.00;;;;;13.64;70.91;100826.00;5097467;28;8830;-59
2023/04/17 09:58:44;;;;;;;;;18.75;18.00;;;;;13.66;70.94;100824.91;5096920;28;8907;-59
2023/04/17 10:01:12;;;;;;;;;17.00;15.25;;;;;13.67;70.83;100831.13;5096805;28;9009;-58
2023/04/17 10:03:40;;;;;;;;;18.75;17.25;;;;;13.82;70.63;100830.75;5096675;28;8837;-58
2023/04/17 10:06:09;;;;;;;;;21.00;19.25;;;;;13.94;69.82;100828.94;5096448;28;8964;-58
2023/04/17 10:08:37;;;;;;;;;13.75;12.00;;;;;14.04;69.86;100833.44;5095524;28;8825;-60
2023/04/17 10:11:05;;;;;;;;;21.50;20.00;;;;;14.14;69.66;100830.88;5094950;28;8838;-59
2023/04/17 10:13:33;;;;;;;;;15.00;15.00;;;;;14.50;68.70;100828.78;5096306;28;8846;-58
2023/04/17 10:16:01;;;;;;;;;18.00;18.00;;;;;15.01;67.17;100826.34;5096056;28;8845;-61
2023/04/17 10:18:29;;;;;;;;;18.25;18.00;;;;;15.74;65.28;100806.53;5096097;28;8837;-60
2023/04/17 10:21:00;;;;;;;;;18.00;18.00;;;;;16.53;64.27;100810.09;5095944;28;8934;-60
2023/04/17 10:23:33;;;;;;;;;26.50;24.00;;;;;17.35;62.83;100806.00;5095925;28;8846;-60
2023/04/17 10:26:01;;;;;;;;;22.75;20.00;;;;;18.01;61.32;100803.19;5096493;28;8834;-61
2023/04/17 10:28:29;;;;;;;;;19.00;18.25;;;;;18.57;60.04;100797.63;5095894;28;8837;-60
2023/04/17 10:31:00;;;;;;;;;18.50;17.50;;;;;18.91;59.42;100796.00;5095697;28;8838;-61
2023/04/17 10:33:27;;;;;;;;;21.50;17.50;;;;;18.98;59.03;100794.38;5096123;28;8860;-59
2023/04/17 10:35:55;;;;;;;;;23.80;22.80;;;;;18.52;60.01;100798.09;5095819;28;8845;-61
2023/04/17 10:38:23;;;;;;;;;20.40;20.40;;;;;18.32;60.39;100801.06;5095495;28;9216;-59
2023/04/17 10:40:52;;;;;;;;;20.00;18.20;;;;;18.80;59.84;100783.56;5094830;28;8840;-59
2023/04/17 10:43:21;;;;;;;;;16.00;15.00;;;;;19.50;57.99;100780.81;5094940;28;8834;-61
2023/04/17 10:45:51;;;;;;;;;27.00;25.00;;;;;20.16;56.66;100781.91;5094446;28;8988;-58
2023/04/17 10:48:20;;;;;;;;;21.40;20.20;;;;;20.73;55.69;100772.09;5094589;28;8849;-60
2023/04/17 10:50:48;;;;;;;;;29.80;23.60;;;;;20.92;55.01;100787.06;5095387;28;8975;-60
2023/04/17 10:53:16;;;;;;;;;27.00;23.20;;;;;20.61;55.52;100776.13;5094967;28;9492;-60
2023/04/17 10:55:44;;;;;;;;;26.40;24.20;;;;;20.07;56.74;100780.19;5095012;28;8849;-60
2023/04/17 10:58:12;;;;;;;;;22.80;20.40;;;;;19.83;56.68;100782.72;5095143;28;8845;-59
2023/04/17 11:00:40;;;;;;;;;26.20;24.40;;;;;19.94;56.28;100785.16;5095451;28;9627;-59
2023/04/17 11:03:08;;;;;;;;;19.80;17.00;;;;;19.97;54.88;100776.72;5095191;28;9035;-59
2023/04/17 11:05:37;;;;;;;;;22.40;21.20;;;;;20.26;53.96;100776.38;5094981;28;8818;-59
2023/04/17 11:08:05;;;;;;;;;24.80;23.40;;;;;20.87;53.43;100766.06;5094355;28;8826;-61
2023/04/17 11:10:32;;;;;;;;;26.60;24.00;;;;;21.46;51.99;100767.44;5093915;28;8934;-59
2023/04/17 11:13:00;;;;;;;;;25.40;23.40;;;;;21.68;52.00;100763.19;5093958;28;8830;-60
2023/04/17 11:15:28;;;;;;;;;22.60;22.40;;;;;22.01;51.05;100767.50;5093275;28;8834;-59
2023/04/17 11:17:57;;;;;;;;;23.00;22.00;;;;;22.22;51.05;100773.16;5093669;28;8830;-61
2023/04/17 11:20:25;;;;;;;;;24.20;22.00;;;;;22.62;49.20;100759.44;5094145;28;8846;-58
2023/04/17 11:22:53;;;;;;;;;20.00;17.60;;;;;22.68;50.08;100761.44;5093468;28;8846;-59